Time;durP1;ratioP1;P1;durP2;ratioP2;P2;SDS_P1;SDS_P2;PMS_P1;PMS_P2;Temp;Humidity;BMP_temperature;BMP_pressure;BME280_temperature;BME280_humidity;BME280_pressure;Samples;Min_cycle;Max_cycle;Signal;HPM_P1;HPM_P2
2022/12/02 00:00:38;;;;;;;51.75;6.93;;;;;;;;;;5030607;28;20080;-64
2022/12/02 00:03:11;;;;;;;44.45;6.50;;;;;;;;;;5031033;28;20083;-65
2022/12/02 00:05:38;;;;;;;46.42;6.75;;;;;;;;;;5030925;28;20025;-64
2022/12/02 00:08:22;;;;;;;43.03;6.45;;;;;;;;;;5036201;28;20569;-62
2022/12/02 00:10:51;;;;;;;47.08;7.05;;;;;;;;;;5040339;28;20026;-63
2022/12/02 00:13:21;;;;;;;60.53;7.15;;;;;;;;;;5038586;28;20061;-63
2022/12/02 00:15:53;;;;;;;46.72;7.32;;;;;;;;;;5039314;28;20029;-62
2022/12/02 00:18:20;;;;;;;53.78;7.80;;;;;;;;;;5040106;28;20133;-59
2022/12/02 00:20:47;;;;;;;50.03;7.75;;;;;;;;;;5040651;28;20132;-61
2022/12/02 00:23:14;;;;;;;49.28;7.82;;;;;;;;;;5050656;28;20017;-60
2022/12/02 00:25:43;;;;;;;45.30;7.65;;;;;;;;;;5039459;28;20117;-62
2022/12/02 00:28:10;;;;;;;52.92;7.03;;;;;;;;;;5038932;28;20075;-62
2022/12/02 00:30:37;;;;;;;53.92;8.00;;;;;;;;;;5047209;28;20017;-61
2022/12/02 00:33:03;;;;;;;58.63;7.78;;;;;;;;;;5041732;28;20389;-61
2022/12/02 00:35:30;;;;;;;55.28;7.75;;;;;;;;;;5039708;28;20380;-61
2022/12/02 00:37:57;;;;;;;50.67;7.82;;;;;;;;;;5041022;28;20108;-61
2022/12/02 00:40:25;;;;;;;46.15;7.22;;;;;;;;;;5039887;28;20065;-63
2022/12/02 00:42:51;;;;;;;52.15;7.60;;;;;;;;;;5039571;28;20029;-62
2022/12/02 00:48:04;;;;;;;55.85;8.27;;;;;;;;;;5041514;28;20121;-63
2022/12/02 00:50:31;;;;;;;62.53;10.02;;;;;;;;;;5035819;28;20033;-63
2022/12/02 00:52:58;;;;;;;53.72;8.07;;;;;;;;;;5030656;28;20467;-62
2022/12/02 00:55:25;;;;;;;61.10;9.40;;;;;;;;;;5030735;28;20022;-62
2022/12/02 00:57:52;;;;;;;48.22;8.00;;;;;;;;;;5030392;28;20072;-62
2022/12/02 01:00:19;;;;;;;46.38;7.38;;;;;;;;;;5030880;28;20103;-63
2022/12/02 01:02:46;;;;;;;46.92;6.85;;;;;;;;;;5043493;28;20025;-61
2022/12/02 01:05:13;;;;;;;47.58;7.63;;;;;;;;;;5052398;28;20414;-60
2022/12/02 01:07:40;;;;;;;48.83;7.35;;;;;;;;;;5053860;28;20564;-60
2022/12/02 01:10:07;;;;;;;41.13;7.20;;;;;;;;;;5053045;28;20067;-61
2022/12/02 01:12:34;;;;;;;47.95;8.45;;;;;;;;;;5052465;28;20487;-60
2022/12/02 01:15:01;;;;;;;48.13;8.05;;;;;;;;;;5053961;28;20024;-61
2022/12/02 01:17:28;;;;;;;74.15;9.43;;;;;;;;;;5054228;28;20540;-62
2022/12/02 01:19:56;;;;;;;56.88;8.82;;;;;;;;;;5053552;28;20028;-63
2022/12/02 01:22:22;;;;;;;60.33;10.32;;;;;;;;;;5047281;28;20037;-60
2022/12/02 01:24:49;;;;;;;73.65;11.82;;;;;;;;;;5041064;28;20033;-61
2022/12/02 01:27:16;;;;;;;63.22;10.68;;;;;;;;;;5033537;28;20025;-62
2022/12/02 01:29:43;;;;;;;67.03;11.63;;;;;;;;;;5034121;28;20065;-62
2022/12/02 01:32:10;;;;;;;74.18;14.90;;;;;;;;;;5033942;28;20104;-62
2022/12/02 01:34:37;;;;;;;76.20;14.65;;;;;;;;;;5033013;28;20025;-63
2022/12/02 01:37:04;;;;;;;84.10;15.05;;;;;;;;;;5033970;28;20765;-63
2022/12/02 01:39:31;;;;;;;86.35;17.27;;;;;;;;;;5042052;28;20024;-63
2022/12/02 01:41:59;;;;;;;117.78;19.50;;;;;;;;;;5043751;28;20043;-62
2022/12/02 01:44:26;;;;;;;120.55;19.98;;;;;;;;;;5054667;28;20025;-63
2022/12/02 01:47:18;;;;;;;104.15;22.15;;;;;;;;;;5055281;28;20032;-61
2022/12/02 01:53:01;;;;;;;89.85;19.35;;;;;;;;;;5055428;28;20047;-62
2022/12/02 01:55:29;;;;;;;91.25;17.60;;;;;;;;;;5054039;28;20029;-63
2022/12/02 01:57:57;;;;;;;80.60;19.35;;;;;;;;;;5052765;28;20136;-62
2022/12/02 02:00:24;;;;;;;80.25;17.23;;;;;;;;;;5051774;28;20031;-61
2022/12/02 02:02:51;;;;;;;101.40;16.80;;;;;;;;;;5033739;28;20522;-61
2022/12/02 02:05:22;;;;;;;93.38;18.98;;;;;;;;;;5032853;28;20048;-62
2022/12/02 02:07:50;;;;;;;87.78;16.65;;;;;;;;;;5033622;28;20025;-62
2022/12/02 02:10:17;;;;;;;89.28;17.67;;;;;;;;;;5033548;28;20038;-61
2022/12/02 02:12:48;;;;;;;92.88;17.02;;;;;;;;;;5032968;28;20076;-62
2022/12/02 02:15:15;;;;;;;111.32;17.00;;;;;;;;;;5028378;28;20037;-62
2022/12/02 02:17:42;;;;;;;70.30;11.65;;;;;;;;;;5032438;28;20065;-59
2022/12/02 02:20:12;;;;;;;65.20;11.60;;;;;;;;;;5033135;28;20029;-60
2022/12/02 02:22:43;;;;;;;52.72;10.45;;;;;;;;;;5032516;28;20080;-60
2022/12/02 02:25:10;;;;;;;37.75;8.45;;;;;;;;;;5032785;28;20052;-63
2022/12/02 02:27:37;;;;;;;47.97;8.52;;;;;;;;;;5032238;28;20373;-61
2022/12/02 02:30:05;;;;;;;46.30;8.38;;;;;;;;;;5032797;28;20476;-60
2022/12/02 02:32:32;;;;;;;38.40;7.53;;;;;;;;;;5031858;28;20025;-59
2022/12/02 02:34:59;;;;;;;39.33;8.07;;;;;;;;;;5035825;28;20029;-62
2022/12/02 02:37:26;;;;;;;37.67;7.65;;;;;;;;;;5052972;28;20043;-60
2022/12/02 02:39:53;;;;;;;40.75;7.25;;;;;;;;;;5053069;28;20025;-61
2022/12/02 02:42:20;;;;;;;46.42;7.63;;;;;;;;;;5052792;28;20029;-61
2022/12/02 02:44:47;;;;;;;52.50;7.18;;;;;;;;;;5052834;28;20040;-60
2022/12/02 02:47:14;;;;;;;43.45;7.43;;;;;;;;;;5052705;28;20386;-61
2022/12/02 02:49:41;;;;;;;50.67;7.90;;;;;;;;;;5052549;28;20157;-61
2022/12/02 02:52:08;;;;;;;51.13;7.32;;;;;;;;;;5052832;28;20037;-60
2022/12/02 02:54:35;;;;;;;51.97;8.27;;;;;;;;;;5052650;28;20039;-62
2022/12/02 02:57:02;;;;;;;43.35;7.35;;;;;;;;;;5052408;28;20099;-63
2022/12/02 02:59:29;;;;;;;46.70;6.35;;;;;;;;;;5042974;28;20064;-61
2022/12/02 03:01:56;;;;;;;47.58;6.05;;;;;;;;;;5039974;28;20059;-61
2022/12/02 03:04:24;;;;;;;38.65;6.25;;;;;;;;;;5041755;28;20186;-60
2022/12/02 03:06:52;;;;;;;47.05;5.97;;;;;;;;;;5037837;28;20037;-62
2022/12/02 03:09:21;;;;;;;43.88;6.15;;;;;;;;;;5041909;28;20029;-62
2022/12/02 03:11:49;;;;;;;43.85;5.93;;;;;;;;;;5040460;28;20022;-63
2022/12/02 03:14:16;;;;;;;25.48;5.40;;;;;;;;;;5034633;28;20112;-62
2022/12/02 03:16:44;;;;;;;25.73;4.75;;;;;;;;;;5032233;28;20040;-62
2022/12/02 03:19:12;;;;;;;36.50;4.93;;;;;;;;;;5032496;28;20079;-62
2022/12/02 03:21:39;;;;;;;50.42;6.25;;;;;;;;;;5032053;28;20491;-62
2022/12/02 03:24:07;;;;;;;42.63;5.82;;;;;;;;;;5031368;28;20040;-62
2022/12/02 03:26:34;;;;;;;40.33;6.63;;;;;;;;;;5032281;28;20040;-61
2022/12/02 03:29:02;;;;;;;37.33;5.28;;;;;;;;;;5032205;28;20029;-63
2022/12/02 03:31:29;;;;;;;29.33;4.75;;;;;;;;;;5032334;28;20511;-62
2022/12/02 03:33:57;;;;;;;42.45;5.82;;;;;;;;;;5032232;28;20037;-62
2022/12/02 03:36:24;;;;;;;32.95;5.60;;;;;;;;;;5032536;28;20471;-62
2022/12/02 03:38:51;;;;;;;53.65;6.50;;;;;;;;;;5032171;28;20049;-62
2022/12/02 03:41:18;;;;;;;41.28;5.85;;;;;;;;;;5032098;28;20037;-62
2022/12/02 03:43:45;;;;;;;45.25;6.63;;;;;;;;;;5032055;28;20025;-62
2022/12/02 03:46:13;;;;;;;41.83;4.38;;;;;;;;;;5032167;28;20039;-62
2022/12/02 03:48:40;;;;;;;22.40;4.00;;;;;;;;;;5032042;28;20018;-62
2022/12/02 03:51:07;;;;;;;25.92;3.47;;;;;;;;;;5032095;28;20026;-62
2022/12/02 03:53:35;;;;;;;30.30;3.63;;;;;;;;;;5031866;28;20021;-62
2022/12/02 03:56:04;;;;;;;19.95;3.03;;;;;;;;;;5033396;28;20045;-62
2022/12/02 03:59:00;;;;;;;20.77;2.70;;;;;;;;;;5039472;28;20036;-62
2022/12/02 04:01:27;;;;;;;24.35;3.03;;;;;;;;;;5035147;28;20052;-60
2022/12/02 04:03:54;;;;;;;22.83;3.25;;;;;;;;;;5051412;28;20029;-60
2022/12/02 04:06:21;;;;;;;24.63;3.00;;;;;;;;;;5051609;28;20489;-60
2022/12/02 04:08:48;;;;;;;21.48;2.45;;;;;;;;;;5051579;28;20029;-59
2022/12/02 04:11:15;;;;;;;18.98;2.78;;;;;;;;;;5051608;28;20067;-60
2022/12/02 04:13:42;;;;;;;22.70;2.53;;;;;;;;;;5051466;28;20021;-59
2022/12/02 04:16:09;;;;;;;24.20;3.05;;;;;;;;;;5051568;28;20036;-60
2022/12/02 04:18:36;;;;;;;28.52;3.20;;;;;;;;;;5051590;28;20029;-60
2022/12/02 04:21:03;;;;;;;20.50;2.40;;;;;;;;;;5051505;28;20155;-60
2022/12/02 04:23:29;;;;;;;11.45;2.30;;;;;;;;;;5051426;28;20426;-60
2022/12/02 04:25:56;;;;;;;13.13;2.60;;;;;;;;;;5051543;28;20483;-59
2022/12/02 04:28:23;;;;;;;18.63;2.20;;;;;;;;;;5051544;28;20057;-60
2022/12/02 04:30:50;;;;;;;29.33;3.20;;;;;;;;;;5051512;28;20111;-60
2022/12/02 04:33:17;;;;;;;14.90;2.53;;;;;;;;;;5051475;28;20031;-59
2022/12/02 04:35:44;;;;;;;20.45;2.45;;;;;;;;;;5052821;28;20127;-60
2022/12/02 04:38:11;;;;;;;14.15;2.22;;;;;;;;;;5055433;28;20032;-59
2022/12/02 04:40:38;;;;;;;14.65;2.20;;;;;;;;;;5055236;28;20033;-60
2022/12/02 04:43:05;;;;;;;28.42;3.42;;;;;;;;;;5055172;28;20402;-59
2022/12/02 04:45:32;;;;;;;10.10;1.83;;;;;;;;;;5055237;28;20104;-61
2022/12/02 04:47:59;;;;;;;15.43;2.17;;;;;;;;;;5055103;28;20394;-60
2022/12/02 04:50:26;;;;;;;15.23;2.05;;;;;;;;;;5055155;28;20037;-61
2022/12/02 04:52:53;;;;;;;13.73;1.67;;;;;;;;;;5055082;28;20056;-59
2022/12/02 04:55:20;;;;;;;16.67;2.20;;;;;;;;;;5055003;28;20033;-59
2022/12/02 04:57:47;;;;;;;15.70;2.50;;;;;;;;;;5054742;28;20410;-60
2022/12/02 05:00:15;;;;;;;11.30;2.08;;;;;;;;;;5054916;28;20111;-60
2022/12/02 05:02:41;;;;;;;9.10;1.75;;;;;;;;;;5055042;28;20070;-60
2022/12/02 05:05:09;;;;;;;10.13;1.83;;;;;;;;;;5054796;28;20024;-59
2022/12/02 05:07:36;;;;;;;9.93;2.08;;;;;;;;;;5054816;28;20063;-60
2022/12/02 05:10:03;;;;;;;11.98;2.40;;;;;;;;;;5054861;28;20025;-61
2022/12/02 05:12:30;;;;;;;6.82;1.98;;;;;;;;;;5054926;28;20064;-60
2022/12/02 05:14:57;;;;;;;13.77;2.00;;;;;;;;;;5054600;28;20025;-60
2022/12/02 05:17:24;;;;;;;13.30;2.20;;;;;;;;;;5054784;28;20090;-60
2022/12/02 05:19:51;;;;;;;12.30;2.20;;;;;;;;;;5054630;28;20025;-60
2022/12/02 05:22:18;;;;;;;12.23;2.17;;;;;;;;;;5054394;28;20053;-58
2022/12/02 05:24:47;;;;;;;9.90;2.20;;;;;;;;;;5054391;28;20036;-60
2022/12/02 05:27:14;;;;;;;10.63;2.30;;;;;;;;;;5054444;28;20032;-61
2022/12/02 05:29:41;;;;;;;10.27;1.95;;;;;;;;;;5054393;28;20442;-59
2022/12/02 05:32:08;;;;;;;8.93;1.90;;;;;;;;;;5054403;28;20037;-59
2022/12/02 05:34:35;;;;;;;12.40;2.40;;;;;;;;;;5054184;28;20032;-60
2022/12/02 05:37:02;;;;;;;7.03;1.98;;;;;;;;;;5054365;28;20063;-60
2022/12/02 05:39:29;;;;;;;11.30;2.22;;;;;;;;;;5054216;28;20108;-60
2022/12/02 05:42:00;;;;;;;11.38;2.28;;;;;;;;;;5054178;28;20517;-60
2022/12/02 05:44:27;;;;;;;9.60;2.20;;;;;;;;;;5054053;28;20029;-59
2022/12/02 05:46:59;;;;;;;11.55;2.28;;;;;;;;;;5053207;28;20387;-59
2022/12/02 05:49:26;;;;;;;9.90;1.85;;;;;;;;;;5054065;28;20087;-59
2022/12/02 05:51:55;;;;;;;9.93;1.90;;;;;;;;;;5054043;28;20029;-60
2022/12/02 05:54:23;;;;;;;8.60;2.22;;;;;;;;;;5053908;28;20079;-59
2022/12/02 05:56:49;;;;;;;9.25;2.38;;;;;;;;;;5053724;28;20052;-61
2022/12/02 05:59:18;;;;;;;14.93;1.80;;;;;;;;;;5053917;28;20052;-60
2022/12/02 06:01:53;;;;;;;9.93;2.10;;;;;;;;;;5058001;28;20475;-59
2022/12/02 06:04:25;;;;;;;10.30;2.38;;;;;;;;;;5073705;28;20032;-60
2022/12/02 06:06:55;;;;;;;12.07;2.13;;;;;;;;;;5073721;28;20086;-60
2022/12/02 06:09:27;;;;;;;13.15;2.45;;;;;;;;;;5073783;28;20029;-60
2022/12/02 06:11:54;;;;;;;11.40;2.30;;;;;;;;;;5073764;28;20426;-59
2022/12/02 06:14:23;;;;;;;14.38;2.58;;;;;;;;;;5073552;28;20020;-60
2022/12/02 06:16:52;;;;;;;12.27;3.00;;;;;;;;;;5073045;28;20132;-59
2022/12/02 06:19:21;;;;;;;17.05;2.50;;;;;;;;;;5073444;28;20389;-60
2022/12/02 06:21:48;;;;;;;11.50;2.22;;;;;;;;;;5073160;28;20136;-59
2022/12/02 06:24:15;;;;;;;10.07;2.40;;;;;;;;;;5073429;28;20021;-60
2022/12/02 06:26:42;;;;;;;14.73;2.85;;;;;;;;;;5073399;28;20482;-60
2022/12/02 06:29:10;;;;;;;13.90;2.10;;;;;;;;;;5073328;28;20044;-60
2022/12/02 06:31:41;;;;;;;11.18;2.20;;;;;;;;;;5073207;28;20024;-60
2022/12/02 06:34:26;;;;;;;9.25;2.10;;;;;;;;;;5073145;28;20044;-59
2022/12/02 06:36:53;;;;;;;8.38;2.15;;;;;;;;;;5073324;28;20024;-60
2022/12/02 06:39:23;;;;;;;10.45;2.03;;;;;;;;;;5073130;28;20030;-60
2022/12/02 06:41:51;;;;;;;8.25;2.03;;;;;;;;;;5073082;28;20040;-60
2022/12/02 06:47:26;;;;;;;5.28;1.90;;;;;;;;;;5073295;28;20093;-60
2022/12/02 06:49:53;;;;;;;11.73;2.33;;;;;;;;;;5072855;28;20111;-60
2022/12/02 06:52:21;;;;;;;7.78;2.03;;;;;;;;;;5072840;28;20051;-59
2022/12/02 06:54:49;;;;;;;10.77;2.13;;;;;;;;;;5072814;28;20031;-60
2022/12/02 06:57:19;;;;;;;10.75;2.10;;;;;;;;;;5072645;28;20510;-60
2022/12/02 06:59:49;;;;;;;10.57;2.42;;;;;;;;;;5072606;28;20591;-60
2022/12/02 07:02:23;;;;;;;15.68;2.53;;;;;;;;;;5072602;28;20593;-60
2022/12/02 07:04:50;;;;;;;11.75;2.30;;;;;;;;;;5072539;28;20016;-60
2022/12/02 07:07:17;;;;;;;11.27;2.13;;;;;;;;;;5072589;28;20107;-59
2022/12/02 07:09:46;;;;;;;9.60;2.58;;;;;;;;;;5071313;28;20029;-60
2022/12/02 07:12:18;;;;;;;14.30;2.90;;;;;;;;;;5072583;28;20032;-59
2022/12/02 07:14:47;;;;;;;15.02;2.83;;;;;;;;;;5072455;28;20021;-60
2022/12/02 07:17:14;;;;;;;10.50;2.40;;;;;;;;;;5072396;28;20040;-60
2022/12/02 07:19:43;;;;;;;7.75;2.00;;;;;;;;;;5072430;28;20021;-60
2022/12/02 07:22:15;;;;;;;15.48;2.80;;;;;;;;;;5072299;28;20067;-60
2022/12/02 07:24:42;;;;;;;15.25;2.28;;;;;;;;;;5072306;28;20685;-60
2022/12/02 07:27:16;;;;;;;13.38;2.20;;;;;;;;;;5072246;28;20027;-60
2022/12/02 07:29:43;;;;;;;11.00;2.35;;;;;;;;;;5072287;28;20075;-61
2022/12/02 07:32:10;;;;;;;9.20;2.30;;;;;;;;;;5072242;28;20032;-61
2022/12/02 07:34:37;;;;;;;9.00;2.40;;;;;;;;;;5072060;28;20060;-61
2022/12/02 07:37:04;;;;;;;9.65;2.60;;;;;;;;;;5072142;28;20040;-61
2022/12/02 07:39:31;;;;;;;13.70;2.45;;;;;;;;;;5072424;28;20062;-61
2022/12/02 07:41:58;;;;;;;14.05;2.30;;;;;;;;;;5072147;28;20054;-61
2022/12/02 07:44:24;;;;;;;12.75;2.72;;;;;;;;;;5072002;28;20024;-61
2022/12/02 07:46:51;;;;;;;14.57;2.80;;;;;;;;;;5072070;28;20025;-61
2022/12/02 07:49:18;;;;;;;13.05;3.15;;;;;;;;;;5072036;28;20021;-61
2022/12/02 07:51:45;;;;;;;13.02;2.95;;;;;;;;;;5071998;28;20032;-60
2022/12/02 07:54:12;;;;;;;9.20;2.70;;;;;;;;;;5071832;28;20024;-61
2022/12/02 07:56:39;;;;;;;11.35;3.45;;;;;;;;;;5071781;28;20044;-61
2022/12/02 07:59:06;;;;;;;14.98;3.40;;;;;;;;;;5072159;28;20474;-61
2022/12/02 08:01:33;;;;;;;13.27;2.65;;;;;;;;;;5070548;28;20433;-61
2022/12/02 08:04:00;;;;;;;12.18;2.83;;;;;;;;;;5071779;28;20068;-61
2022/12/02 08:06:27;;;;;;;15.63;3.20;;;;;;;;;;5071862;28;20021;-61
2022/12/02 08:08:54;;;;;;;12.90;3.08;;;;;;;;;;5071917;28;20025;-61
2022/12/02 08:11:21;;;;;;;12.50;2.70;;;;;;;;;;5074241;28;20025;-61
2022/12/02 08:13:48;;;;;;;19.52;3.63;;;;;;;;;;5075864;28;20490;-61
2022/12/02 08:16:15;;;;;;;12.43;3.30;;;;;;;;;;5075962;28;20025;-61
2022/12/02 08:18:42;;;;;;;16.83;3.47;;;;;;;;;;5075850;28;20021;-61
2022/12/02 08:21:09;;;;;;;16.00;3.33;;;;;;;;;;5075703;28;20048;-62
2022/12/02 08:23:36;;;;;;;12.77;3.28;;;;;;;;;;5075775;28;20041;-60
2022/12/02 08:26:03;;;;;;;14.13;2.90;;;;;;;;;;5075761;28;20029;-60
2022/12/02 08:28:30;;;;;;;8.65;2.80;;;;;;;;;;5075694;28;20039;-60
2022/12/02 08:30:57;;;;;;;13.25;2.55;;;;;;;;;;5075605;28;20025;-59
2022/12/02 08:33:24;;;;;;;12.27;3.03;;;;;;;;;;5075557;28;20028;-60
2022/12/02 08:35:51;;;;;;;14.15;2.80;;;;;;;;;;5075556;28;20070;-60
2022/12/02 08:38:19;;;;;;;10.50;2.53;;;;;;;;;;5075623;28;20543;-60
2022/12/02 08:40:46;;;;;;;9.98;2.58;;;;;;;;;;5075341;28;20039;-60
2022/12/02 08:43:13;;;;;;;8.32;2.30;;;;;;;;;;5075328;28;20437;-60
2022/12/02 08:45:40;;;;;;;14.38;2.53;;;;;;;;;;5075400;28;20404;-60
2022/12/02 08:48:07;;;;;;;11.05;2.53;;;;;;;;;;5075273;28;20100;-60
2022/12/02 08:50:34;;;;;;;16.67;2.70;;;;;;;;;;5075235;28;20028;-60
2022/12/02 08:53:01;;;;;;;11.98;2.40;;;;;;;;;;5075151;28;20116;-61
2022/12/02 08:55:28;;;;;;;12.50;2.63;;;;;;;;;;5075162;28;20029;-61
2022/12/02 08:57:55;;;;;;;16.30;2.90;;;;;;;;;;5074904;28;20052;-61
2022/12/02 09:00:22;;;;;;;16.50;3.13;;;;;;;;;;5075121;28;20033;-60
2022/12/02 09:02:49;;;;;;;18.80;3.10;;;;;;;;;;5074994;28;20398;-61
2022/12/02 09:05:16;;;;;;;54.28;5.65;;;;;;;;;;5075026;28;20017;-61
2022/12/02 09:07:43;;;;;;;28.67;4.35;;;;;;;;;;5075001;28;20021;-61
2022/12/02 09:10:11;;;;;;;32.25;4.20;;;;;;;;;;5074825;28;20029;-60
2022/12/02 09:12:37;;;;;;;24.55;3.30;;;;;;;;;;5074836;28;20040;-61
2022/12/02 09:15:05;;;;;;;32.95;4.22;;;;;;;;;;5074836;28;20032;-59
2022/12/02 09:17:32;;;;;;;24.30;3.47;;;;;;;;;;5074761;28;20025;-61
2022/12/02 09:19:59;;;;;;;22.40;3.58;;;;;;;;;;5074692;28;20033;-61
2022/12/02 09:22:26;;;;;;;24.23;4.05;;;;;;;;;;5074424;28;20367;-61
2022/12/02 09:24:53;;;;;;;25.35;3.42;;;;;;;;;;5074551;28;20115;-62
2022/12/02 09:27:19;;;;;;;32.63;4.47;;;;;;;;;;5074570;28;20111;-61
2022/12/02 09:29:46;;;;;;;27.33;3.70;;;;;;;;;;5074560;28;20055;-61
2022/12/02 09:32:13;;;;;;;31.02;4.22;;;;;;;;;;5074446;28;20032;-60
2022/12/02 09:34:40;;;;;;;29.40;4.38;;;;;;;;;;5074148;28;20029;-61
2022/12/02 09:37:07;;;;;;;39.88;4.30;;;;;;;;;;5074394;28;20552;-60
2022/12/02 09:39:34;;;;;;;31.92;4.70;;;;;;;;;;5074336;28;20016;-61
2022/12/02 09:42:01;;;;;;;23.17;3.42;;;;;;;;;;5074300;28;20048;-61
2022/12/02 09:44:28;;;;;;;37.10;4.72;;;;;;;;;;5074195;28;20036;-61
2022/12/02 09:46:55;;;;;;;39.58;3.92;;;;;;;;;;5074327;28;20027;-61
2022/12/02 09:49:22;;;;;;;38.80;4.63;;;;;;;;;;5073587;28;20021;-61
2022/12/02 09:51:49;;;;;;;34.20;4.18;;;;;;;;;;5064878;28;20034;-59
2022/12/02 09:54:16;;;;;;;39.75;4.85;;;;;;;;;;5043511;28;20051;-62
2022/12/02 09:56:43;;;;;;;54.47;5.68;;;;;;;;;;5042942;28;20045;-60
2022/12/02 09:59:14;;;;;;;33.58;4.40;;;;;;;;;;5041432;28;20033;-61
2022/12/02 10:01:46;;;;;;;43.50;4.65;;;;;;;;;;5041493;28;20029;-59
2022/12/02 10:04:14;;;;;;;40.70;4.60;;;;;;;;;;5043614;28;20593;-59
2022/12/02 10:06:41;;;;;;;30.63;4.43;;;;;;;;;;5042577;28;20021;-60
2022/12/02 10:09:13;;;;;;;36.80;4.03;;;;;;;;;;5041415;28;20033;-61
2022/12/02 10:11:39;;;;;;;;;;;;;;;;;;5042781;28;20499;-61
2022/12/02 10:14:06;;;;;;;24.65;3.83;;;;;;;;;;5043076;28;19920;-61
2022/12/02 10:16:34;;;;;;;38.00;4.78;;;;;;;;;;5043416;28;20036;-60
2022/12/02 10:19:02;;;;;;;42.17;5.45;;;;;;;;;;5040073;28;20060;-60
2022/12/02 10:21:29;;;;;;;42.25;5.00;;;;;;;;;;5044191;28;20037;-60
2022/12/02 10:24:00;;;;;;;32.17;4.80;;;;;;;;;;5042839;28;20456;-59
2022/12/02 10:26:30;;;;;;;29.85;4.10;;;;;;;;;;5043840;28;20040;-61
2022/12/02 10:29:02;;;;;;;27.95;4.70;;;;;;;;;;5041287;28;20041;-59
2022/12/02 10:31:29;;;;;;;23.65;4.38;;;;;;;;;;5035286;28;20033;-60
2022/12/02 10:34:04;;;;;;;25.90;4.55;;;;;;;;;;5048254;28;20391;-61
2022/12/02 10:36:31;;;;;;;34.25;4.82;;;;;;;;;;5035627;28;20029;-59
2022/12/02 10:39:17;;;;;;;31.05;4.70;;;;;;;;;;5033308;28;20028;-61
2022/12/02 10:41:43;;;;;;;31.83;4.78;;;;;;;;;;5033085;28;20488;-61
2022/12/02 10:44:15;;;;;;;44.63;5.80;;;;;;;;;;5033196;28;20109;-62
2022/12/02 10:46:42;;;;;;;34.72;5.75;;;;;;;;;;5033220;28;20464;-61
2022/12/02 10:49:17;;;;;;;41.13;5.53;;;;;;;;;;5033001;28;20080;-61
2022/12/02 10:51:44;;;;;;;40.40;5.82;;;;;;;;;;5033028;28;20049;-61
2022/12/02 10:54:30;;;;;;;41.20;6.30;;;;;;;;;;5033019;28;20048;-61
2022/12/02 10:56:59;;;;;;;67.72;7.88;;;;;;;;;;5032720;28;20107;-60
2022/12/02 10:59:26;;;;;;;47.85;6.75;;;;;;;;;;5033024;28;20033;-60
2022/12/02 11:01:53;;;;;;;46.45;6.28;;;;;;;;;;5044760;28;20086;-62
2022/12/02 11:04:21;;;;;;;41.65;6.78;;;;;;;;;;5052636;28;20056;-59
2022/12/02 11:06:48;;;;;;;77.25;7.97;;;;;;;;;;5052641;28;20055;-59
2022/12/02 11:09:20;;;;;;;59.13;6.78;;;;;;;;;;5052579;28;20108;-62
2022/12/02 11:11:47;;;;;;;51.97;8.95;;;;;;;;;;5052551;28;20028;-63
2022/12/02 11:14:34;;;;;;;52.00;9.68;;;;;;;;;;5052592;28;20028;-64
2022/12/02 11:17:05;;;;;;;60.65;9.90;;;;;;;;;;5052068;28;20041;-65
2022/12/02 11:19:36;;;;;;;72.90;21.80;;;;;;;;;;5052436;28;20025;-49
2022/12/02 11:22:04;;;;;;;247.68;20.60;;;;;;;;;;5052389;28;20119;-50
2022/12/02 11:24:30;;;;;;;132.88;14.05;;;;;;;;;;5052311;28;20056;-51
2022/12/02 11:27:03;;;;;;;110.40;14.77;;;;;;;;;;5052269;28;20055;-50
2022/12/02 11:29:30;;;;;;;170.30;50.05;;;;;;;;;;5052294;28;20036;-53
2022/12/02 11:32:17;;;;;;;96.18;20.90;;;;;;;;;;5052303;28;20483;-50
2022/12/02 11:34:54;;;;;;;96.28;16.75;;;;;;;;;;5052312;28;20071;-53
2022/12/02 11:37:34;;;;;;;79.40;12.45;;;;;;;;;;5052136;28;20037;-59
2022/12/02 11:40:04;;;;;;;53.40;8.10;;;;;;;;;;5052078;28;20037;-55
2022/12/02 11:42:32;;;;;;;56.47;7.30;;;;;;;;;;5051886;28;20032;-53
2022/12/02 11:45:13;;;;;;;51.38;10.63;;;;;;;;;;5051294;28;20131;-53
2022/12/02 11:47:41;;;;;;;75.82;8.43;;;;;;;;;;5052046;28;20034;-55
2022/12/02 11:50:16;;;;;;;67.55;7.95;;;;;;;;;;5049897;28;20033;-51
2022/12/02 11:53:09;;;;;;;80.57;8.85;;;;;;;;;;5044306;28;20348;-56
2022/12/02 11:55:40;;;;;;;50.30;6.47;;;;;;;;;;5030601;28;20091;-55
2022/12/02 11:58:17;;;;;;;53.05;6.70;;;;;;;;;;5031224;28;20053;-52
2022/12/02 12:01:00;;;;;;;47.42;5.82;;;;;;;;;;5046011;28;20072;-56
2022/12/02 12:03:27;;;;;;;55.08;6.18;;;;;;;;;;5051262;28;20552;-53
2022/12/02 12:06:06;;;;;;;31.50;4.97;;;;;;;;;;5051148;28;20021;-51
2022/12/02 12:08:33;;;;;;;53.95;5.88;;;;;;;;;;5044152;28;20088;-54
2022/12/02 12:11:15;;;;;;;45.75;6.43;;;;;;;;;;5031394;28;20033;-50
2022/12/02 12:14:00;;;;;;;237.27;21.15;;;;;;;;;;5031352;28;20136;-54
2022/12/02 12:16:31;;;;;;;240.23;23.80;;;;;;;;;;5031624;28;20029;-50
2022/12/02 12:19:02;;;;;;;123.95;14.88;;;;;;;;;;5030948;28;20061;-48
2022/12/02 12:21:32;;;;;;;84.97;7.80;;;;;;;;;;5031093;28;20029;-52
2022/12/02 12:24:17;;;;;;;73.85;6.78;;;;;;;;;;5031230;28;20022;-48
2022/12/02 12:26:45;;;;;;;45.95;5.25;;;;;;;;;;5031361;28;20026;-51
2022/12/02 12:29:12;;;;;;;48.30;5.65;;;;;;;;;;5030996;28;20028;-55
2022/12/02 12:31:39;;;;;;;68.97;8.38;;;;;;;;;;5031287;28;20076;-50
2022/12/02 12:34:07;;;;;;;65.43;7.63;;;;;;;;;;5031174;28;20040;-53
2022/12/02 12:36:34;;;;;;;73.85;6.65;;;;;;;;;;5031111;28;20497;-54
2022/12/02 12:39:01;;;;;;;87.70;7.13;;;;;;;;;;5031125;28;20029;-55
2022/12/02 12:41:28;;;;;;;47.05;6.55;;;;;;;;;;5030563;28;20511;-53
2022/12/02 12:43:55;;;;;;;49.85;5.90;;;;;;;;;;5030979;28;20021;-54
2022/12/02 12:46:22;;;;;;;82.97;6.50;;;;;;;;;;5030992;28;20083;-54
2022/12/02 12:48:48;;;;;;;59.83;5.95;;;;;;;;;;5031297;28;20031;-50
2022/12/02 12:51:16;;;;;;;63.58;6.30;;;;;;;;;;5030858;28;20032;-52
2022/12/02 12:53:42;;;;;;;33.47;4.93;;;;;;;;;;5030931;28;20041;-50
2022/12/02 12:56:09;;;;;;;33.15;4.07;;;;;;;;;;5031313;28;20072;-50
2022/12/02 12:58:36;;;;;;;33.00;5.55;;;;;;;;;;5034494;28;20060;-51
2022/12/02 13:01:03;;;;;;;36.63;4.13;;;;;;;;;;5034157;28;20132;-54
2022/12/02 13:03:30;;;;;;;50.58;5.50;;;;;;;;;;5051832;28;20037;-51
2022/12/02 13:05:57;;;;;;;45.45;6.07;;;;;;;;;;5054251;28;20029;-51
2022/12/02 13:08:24;;;;;;;57.35;6.10;;;;;;;;;;5054414;28;20039;-52
2022/12/02 13:10:51;;;;;;;98.15;8.25;;;;;;;;;;5054608;28;20029;-55
2022/12/02 13:13:18;;;;;;;91.30;8.38;;;;;;;;;;5053976;28;20108;-54
2022/12/02 13:15:45;;;;;;;52.67;6.25;;;;;;;;;;5054373;28;20743;-52
2022/12/02 13:18:12;;;;;;;39.42;4.82;;;;;;;;;;5054514;28;20021;-52
2022/12/02 13:20:39;;;;;;;39.08;4.70;;;;;;;;;;5053831;28;20033;-55
2022/12/02 13:23:06;;;;;;;34.10;4.13;;;;;;;;;;5054222;28;20059;-53
2022/12/02 13:25:33;;;;;;;41.53;4.78;;;;;;;;;;5052970;28;20395;-51
2022/12/02 13:28:00;;;;;;;30.35;4.03;;;;;;;;;;5052789;28;20040;-53
2022/12/02 13:30:27;;;;;;;41.97;4.80;;;;;;;;;;5054172;28;20159;-54
2022/12/02 13:32:54;;;;;;;37.40;4.50;;;;;;;;;;5054127;28;20036;-49
2022/12/02 13:35:21;;;;;;;41.15;5.05;;;;;;;;;;5052767;28;20032;-54
2022/12/02 13:37:48;;;;;;;41.70;4.75;;;;;;;;;;5053879;28;20047;-53
2022/12/02 13:40:17;;;;;;;32.88;4.43;;;;;;;;;;5053875;28;20028;-52
2022/12/02 13:42:44;;;;;;;22.83;3.97;;;;;;;;;;5053282;28;20067;-51
2022/12/02 13:45:11;;;;;;;29.67;4.40;;;;;;;;;;5053251;28;20029;-54
2022/12/02 13:47:39;;;;;;;35.00;4.20;;;;;;;;;;5053756;28;20479;-55
2022/12/02 13:50:07;;;;;;;29.50;4.28;;;;;;;;;;5053063;28;20029;-53
2022/12/02 13:52:33;;;;;;;26.42;3.83;;;;;;;;;;5053549;28;20029;-55
2022/12/02 13:55:00;;;;;;;22.63;3.90;;;;;;;;;;5053178;28;20025;-52
2022/12/02 13:57:27;;;;;;;27.70;4.32;;;;;;;;;;5052752;28;20067;-54
2022/12/02 13:59:54;;;;;;;30.13;4.35;;;;;;;;;;5053295;28;20036;-55
2022/12/02 14:02:21;;;;;;;40.25;4.90;;;;;;;;;;5052514;28;20029;-54
2022/12/02 14:04:48;;;;;;;21.67;3.30;;;;;;;;;;5052948;28;20056;-49
2022/12/02 14:07:15;;;;;;;33.35;3.85;;;;;;;;;;5053457;28;20029;-53
2022/12/02 14:09:42;;;;;;;37.63;4.93;;;;;;;;;;5052055;28;20108;-50
2022/12/02 14:12:11;;;;;;;32.78;5.07;;;;;;;;;;5052288;28;20020;-53
2022/12/02 14:14:38;;;;;;;48.63;5.53;;;;;;;;;;5053300;28;20401;-54
2022/12/02 14:17:05;;;;;;;35.95;5.57;;;;;;;;;;5046282;28;20033;-55
2022/12/02 14:19:32;;;;;;;31.20;4.57;;;;;;;;;;5039849;28;20024;-53
2022/12/02 14:21:59;;;;;;;30.65;4.40;;;;;;;;;;5041694;28;20029;-52
2022/12/02 14:24:26;;;;;;;28.58;4.28;;;;;;;;;;5042395;28;20045;-57
2022/12/02 14:26:53;;;;;;;37.15;5.35;;;;;;;;;;5040624;28;20052;-53
2022/12/02 14:29:20;;;;;;;40.40;4.88;;;;;;;;;;5041791;28;20083;-51
2022/12/02 14:31:47;;;;;;;28.15;3.95;;;;;;;;;;5035229;28;20037;-52
2022/12/02 14:34:14;;;;;;;35.33;4.28;;;;;;;;;;5032433;28;20051;-51
2022/12/02 14:36:44;;;;;;;28.90;4.90;;;;;;;;;;5033120;28;20025;-49
2022/12/02 14:39:11;;;;;;;33.92;3.80;;;;;;;;;;5032634;28;20562;-53
2022/12/02 14:41:38;;;;;;;23.92;3.40;;;;;;;;;;5034233;28;20030;-52
2022/12/02 14:44:05;;;;;;;19.00;2.63;;;;;;;;;;5040085;28;20017;-50